createdAt,value
2019-03-26T00:00:49.442Z,1019.05
2019-03-26T00:01:49.431Z,1019.06
2019-03-26T00:02:49.425Z,1019.03
2019-03-26T00:03:49.419Z,1018.99
2019-03-26T00:04:49.413Z,1019.03
2019-03-26T00:05:49.407Z,1019.04
2019-03-26T00:06:49.403Z,1019.06
2019-03-26T00:07:49.393Z,1019.06
2019-03-26T00:08:49.386Z,1019.11
2019-03-26T00:09:49.380Z,1019.07
2019-03-26T00:10:49.376Z,1019.08
2019-03-26T00:11:49.366Z,1019.04
2019-03-26T00:12:49.360Z,1019.07
2019-03-26T00:13:49.354Z,1019.06
2019-03-26T00:14:49.346Z,1019.02
2019-03-26T00:15:49.340Z,1019.01
2019-03-26T00:16:49.334Z,1019.00
2019-03-26T00:17:49.333Z,1019.02
2019-03-26T00:18:49.321Z,1019.04
2019-03-26T00:19:49.314Z,1019.11
2019-03-26T00:20:49.308Z,1019.11
2019-03-26T00:21:49.301Z,1019.10
2019-03-26T00:22:49.294Z,1019.14
2019-03-26T00:23:49.293Z,1019.14
2019-03-26T00:24:49.282Z,1019.22
2019-03-26T00:25:49.283Z,1019.18
2019-03-26T00:26:49.266Z,1019.17
2019-03-26T00:27:49.269Z,1019.19
2019-03-26T00:28:49.254Z,1019.18
2019-03-26T00:29:49.247Z,1019.18
2019-03-26T00:30:49.244Z,1019.22
2019-03-26T00:31:49.235Z,1019.32
2019-03-26T00:32:49.228Z,1019.29
2019-03-26T00:33:49.222Z,1019.28
2019-03-26T00:34:49.215Z,1019.27
2019-03-26T00:35:49.212Z,1019.29
2019-03-26T00:36:49.201Z,1019.27
2019-03-26T00:37:49.194Z,1019.28
2019-03-26T00:38:49.302Z,1019.25
2019-03-26T00:39:49.183Z,1019.25
2019-03-26T00:40:49.176Z,1019.22
2019-03-26T00:41:49.168Z,1019.17
2019-03-26T00:42:49.163Z,1019.17
2019-03-26T00:43:49.154Z,1019.17
2019-03-26T00:44:49.148Z,1019.18
2019-03-26T00:45:49.212Z,1019.22
2019-03-26T00:46:49.135Z,1019.19
2019-03-26T00:47:49.133Z,1019.19
2019-03-26T00:48:49.126Z,1019.16
2019-03-26T00:49:49.115Z,1019.19
2019-03-26T00:50:49.108Z,1019.21
2019-03-26T00:51:49.101Z,1019.17
2019-03-26T00:52:49.096Z,1019.17
2019-03-26T00:53:49.089Z,1019.19
2019-03-26T00:54:49.081Z,1019.20
2019-03-26T00:55:49.075Z,1019.22
2019-03-26T00:56:49.069Z,1019.20
2019-03-26T00:57:49.060Z,1019.23
2019-03-26T00:58:49.057Z,1019.21
2019-03-26T00:59:49.048Z,1019.23
2019-03-26T01:00:49.044Z,1019.23
2019-03-26T01:01:49.035Z,1019.21
2019-03-26T01:02:49.029Z,1019.23
2019-03-26T01:03:49.021Z,1019.25
2019-03-26T01:04:49.015Z,1019.29
2019-03-26T01:05:49.008Z,1019.19
2019-03-26T01:06:49.002Z,1019.24
2019-03-26T01:07:48.995Z,1019.28
2019-03-26T01:08:48.989Z,1019.25
2019-03-26T01:09:48.983Z,1019.25
2019-03-26T01:10:48.973Z,1019.29
2019-03-26T01:11:48.969Z,1019.31
2019-03-26T01:12:48.963Z,1019.32
2019-03-26T01:13:48.956Z,1019.30
2019-03-26T01:14:48.948Z,1019.30
2019-03-26T01:15:48.941Z,1019.30
2019-03-26T01:16:48.936Z,1019.29
2019-03-26T01:17:48.926Z,1019.29
2019-03-26T01:18:48.921Z,1019.28
2019-03-26T01:19:48.915Z,1019.34
2019-03-26T01:20:48.908Z,1019.33
2019-03-26T01:21:48.900Z,1019.38
2019-03-26T01:22:48.895Z,1019.31
2019-03-26T01:23:48.889Z,1019.33
2019-03-26T01:24:48.881Z,1019.34
2019-03-26T01:25:48.874Z,1019.32
2019-03-26T01:26:48.866Z,1019.36
2019-03-26T01:27:48.860Z,1019.34
2019-03-26T01:28:48.856Z,1019.34
2019-03-26T01:29:48.849Z,1019.35
2019-03-26T01:30:48.840Z,1019.33
2019-03-26T01:31:48.834Z,1019.34
2019-03-26T01:32:48.827Z,1019.39
2019-03-26T01:33:48.821Z,1019.34
2019-03-26T01:34:48.822Z,1019.36
2019-03-26T01:35:48.808Z,1019.34
2019-03-26T01:36:48.801Z,1019.36
2019-03-26T01:37:48.795Z,1019.34
2019-03-26T01:38:48.792Z,1019.30
2019-03-26T01:39:48.783Z,1019.31
2019-03-26T01:40:48.773Z,1019.31
2019-03-26T01:41:48.768Z,1019.29
2019-03-26T01:42:48.759Z,1019.33
2019-03-26T01:43:48.757Z,1019.30
2019-03-26T01:44:48.748Z,1019.30
2019-03-26T01:45:48.742Z,1019.31
2019-03-26T01:46:48.743Z,1019.33
2019-03-26T01:47:48.727Z,1019.34
2019-03-26T01:48:48.720Z,1019.36
2019-03-26T01:49:48.711Z,1019.39
2019-03-26T01:50:48.707Z,1019.37
2019-03-26T01:51:48.700Z,1019.34
2019-03-26T01:52:48.695Z,1019.34
2019-03-26T01:53:48.700Z,1019.32
2019-03-26T01:54:48.682Z,1019.28
2019-03-26T01:55:48.680Z,1019.31
2019-03-26T01:56:48.667Z,1019.29
2019-03-26T01:57:48.661Z,1019.30
2019-03-26T01:58:48.668Z,1019.28
2019-03-26T01:59:48.646Z,1019.28
2019-03-26T02:00:48.640Z,1019.31
2019-03-26T02:01:48.631Z,1019.27
2019-03-26T02:02:48.625Z,1019.25
2019-03-26T02:03:48.618Z,1019.28
2019-03-26T02:04:59.333Z,1019.23
2019-03-26T02:05:48.604Z,1019.30
2019-03-26T02:06:48.598Z,1019.28
2019-03-26T02:07:48.602Z,1019.22
2019-03-26T02:08:48.585Z,1019.25
2019-03-26T02:09:48.588Z,1019.25
2019-03-26T02:10:48.570Z,1019.29
2019-03-26T02:11:48.567Z,1019.30
2019-03-26T02:12:48.845Z,1019.33
2019-03-26T02:13:48.555Z,1019.32
2019-03-26T02:14:48.543Z,1019.32
2019-03-26T02:15:48.544Z,1019.32
2019-03-26T02:16:48.534Z,1019.34
2019-03-26T02:17:48.526Z,1019.38
2019-03-26T02:18:48.518Z,1019.31
2019-03-26T02:19:48.511Z,1019.37
2019-03-26T02:20:48.508Z,1019.36
2019-03-26T02:21:48.496Z,1019.35
2019-03-26T02:22:48.491Z,1019.35
2019-03-26T02:23:48.485Z,1019.33
2019-03-26T02:24:48.479Z,1019.33
2019-03-26T02:25:48.469Z,1019.34
2019-03-26T02:26:48.463Z,1019.31
2019-03-26T02:27:48.457Z,1019.32
2019-03-26T02:28:48.451Z,1019.35
2019-03-26T02:29:48.443Z,1019.26
2019-03-26T02:30:48.438Z,1019.21
2019-03-26T02:31:48.430Z,1019.24
2019-03-26T02:32:48.423Z,1019.20
2019-03-26T02:33:48.416Z,1019.22
2019-03-26T02:34:48.409Z,1019.17
2019-03-26T02:35:48.403Z,1019.21
2019-03-26T02:36:48.399Z,1019.22
2019-03-26T02:37:48.391Z,1019.23
2019-03-26T02:38:48.383Z,1019.24
2019-03-26T02:39:48.377Z,1019.30
2019-03-26T02:40:48.375Z,1019.31
2019-03-26T02:41:48.393Z,1019.31
2019-03-26T02:42:48.356Z,1019.28
2019-03-26T02:43:48.361Z,1019.26
2019-03-26T02:44:48.344Z,1019.29
2019-03-26T02:45:48.336Z,1019.22
2019-03-26T02:46:48.327Z,1019.23
2019-03-26T02:47:48.322Z,1019.22
2019-03-26T02:48:48.316Z,1019.20
2019-03-26T02:49:48.307Z,1019.19
2019-03-26T02:50:48.378Z,1019.24
2019-03-26T02:51:48.297Z,1019.20
2019-03-26T02:52:48.288Z,1019.19
2019-03-26T02:53:48.285Z,1019.20
2019-03-26T02:54:48.275Z,1019.23
2019-03-26T02:55:48.270Z,1019.20
2019-03-26T02:56:48.261Z,1019.19
2019-03-26T02:57:48.263Z,1019.21
2019-03-26T02:58:48.247Z,1019.24
2019-03-26T02:59:48.241Z,1019.21
2019-03-26T03:00:48.236Z,1019.20
2019-03-26T03:01:48.229Z,1019.20
2019-03-26T03:02:48.218Z,1019.20
2019-03-26T03:03:48.217Z,1019.22
2019-03-26T03:04:48.211Z,1019.21
2019-03-26T03:05:48.199Z,1019.19
2019-03-26T03:06:48.192Z,1019.20
2019-03-26T03:07:48.190Z,1019.19
2019-03-26T03:08:48.181Z,1019.19
2019-03-26T03:09:48.172Z,1019.16
2019-03-26T03:10:48.166Z,1019.24
2019-03-26T03:11:48.159Z,1019.28
2019-03-26T03:12:48.156Z,1019.31
2019-03-26T03:13:48.149Z,1019.29
2019-03-26T03:14:48.150Z,1019.30
2019-03-26T03:15:48.131Z,1019.29
2019-03-26T03:16:48.127Z,1019.30
2019-03-26T03:17:48.129Z,1019.34
2019-03-26T03:18:48.122Z,1019.32
2019-03-26T03:19:48.114Z,1019.34
2019-03-26T03:20:48.101Z,1019.35
2019-03-26T03:21:48.090Z,1019.35
2019-03-26T03:22:48.085Z,1019.38
2019-03-26T03:23:48.078Z,1019.38
2019-03-26T03:24:48.075Z,1019.39
2019-03-26T03:25:48.065Z,1019.39
2019-03-26T03:26:48.058Z,1019.34
2019-03-26T03:27:48.050Z,1019.35
2019-03-26T03:28:48.046Z,1019.29
2019-03-26T03:29:48.037Z,1019.31
2019-03-26T03:30:48.034Z,1019.28
2019-03-26T03:31:48.046Z,1019.34
2019-03-26T03:32:48.022Z,1019.27
2019-03-26T03:33:48.014Z,1019.31
2019-03-26T03:34:48.005Z,1019.23
2019-03-26T03:35:52.434Z,1019.23
2019-03-26T03:36:48.007Z,1019.25
2019-03-26T03:37:47.985Z,1019.24
2019-03-26T03:38:47.976Z,1019.20
2019-03-26T03:39:47.970Z,1019.28
2019-03-26T03:40:47.965Z,1019.23
2019-03-26T03:41:47.961Z,1019.24
2019-03-26T03:42:47.948Z,1019.25
2019-03-26T03:43:47.944Z,1019.29
2019-03-26T03:44:47.941Z,1019.28
2019-03-26T03:45:47.941Z,1019.28
2019-03-26T03:46:47.926Z,1019.30
2019-03-26T03:47:47.917Z,1019.31
2019-03-26T03:48:47.908Z,1019.39
2019-03-26T03:49:47.904Z,1019.32
2019-03-26T03:50:47.898Z,1019.37
2019-03-26T03:51:47.887Z,1019.40
2019-03-26T03:52:47.882Z,1019.36
2019-03-26T03:53:47.875Z,1019.37
2019-03-26T03:54:47.868Z,1019.35
2019-03-26T03:55:47.862Z,1019.35
2019-03-26T03:56:47.853Z,1019.30
2019-03-26T03:57:47.849Z,1019.29
2019-03-26T03:58:47.842Z,1019.31
2019-03-26T03:59:47.834Z,1019.34
2019-03-26T04:00:47.828Z,1019.32
2019-03-26T04:01:47.821Z,1019.35
2019-03-26T04:02:47.812Z,1019.39
2019-03-26T04:03:47.824Z,1019.33
2019-03-26T04:04:47.800Z,1019.29
2019-03-26T04:05:47.791Z,1019.31
2019-03-26T04:06:47.789Z,1019.28
2019-03-26T04:07:47.783Z,1019.33
2019-03-26T04:08:47.770Z,1019.33
2019-03-26T04:09:47.768Z,1019.30
2019-03-26T04:10:47.759Z,1019.31
2019-03-26T04:11:47.753Z,1019.34
2019-03-26T04:12:47.749Z,1019.37
2019-03-26T04:13:47.736Z,1019.36
2019-03-26T04:14:47.731Z,1019.33
2019-03-26T04:15:47.725Z,1019.30
2019-03-26T04:16:47.717Z,1019.28
2019-03-26T04:17:47.713Z,1019.32
2019-03-26T04:18:47.702Z,1019.24
2019-03-26T04:19:47.696Z,1019.26
2019-03-26T04:20:47.695Z,1019.23
2019-03-26T04:21:47.683Z,1019.23
2019-03-26T04:22:47.679Z,1019.24
2019-03-26T04:23:47.669Z,1019.28
2019-03-26T04:24:47.666Z,1019.33
2019-03-26T04:25:47.655Z,1019.38
2019-03-26T04:26:47.648Z,1019.38
2019-03-26T04:27:47.643Z,1019.40
2019-03-26T04:28:47.636Z,1019.42
2019-03-26T04:29:47.628Z,1019.44
2019-03-26T04:30:47.621Z,1019.48
2019-03-26T04:31:47.618Z,1019.47
2019-03-26T04:32:47.610Z,1019.46
2019-03-26T04:33:47.606Z,1019.43
2019-03-26T04:34:47.596Z,1019.45
2019-03-26T04:35:47.588Z,1019.42
2019-03-26T04:36:47.585Z,1019.42
2019-03-26T04:37:47.572Z,1019.41
2019-03-26T04:38:47.570Z,1019.39
2019-03-26T04:39:47.565Z,1019.46
2019-03-26T04:40:47.555Z,1019.44
2019-03-26T04:41:47.548Z,1019.41
2019-03-26T04:42:47.540Z,1019.38
2019-03-26T04:43:47.534Z,1019.36
2019-03-26T04:44:47.527Z,1019.35
2019-03-26T04:45:47.521Z,1019.35
2019-03-26T04:46:47.513Z,1019.36
2019-03-26T04:47:47.505Z,1019.36
2019-03-26T04:48:47.499Z,1019.35
2019-03-26T04:49:47.495Z,1019.29
2019-03-26T04:50:47.484Z,1019.29
2019-03-26T04:51:47.480Z,1019.30
2019-03-26T04:52:47.473Z,1019.31
2019-03-26T04:53:47.465Z,1019.26
2019-03-26T04:54:47.462Z,1019.24
2019-03-26T04:55:47.455Z,1019.28
2019-03-26T04:56:47.445Z,1019.30
2019-03-26T04:57:47.438Z,1019.27
2019-03-26T04:58:47.435Z,1019.29
2019-03-26T04:59:47.424Z,1019.31
2019-03-26T05:00:47.418Z,1019.27
2019-03-26T05:01:47.410Z,1019.31
2019-03-26T05:02:47.403Z,1019.28
2019-03-26T05:03:47.395Z,1019.34
2019-03-26T05:04:47.392Z,1019.30
2019-03-26T05:05:47.383Z,1019.35
2019-03-26T05:06:47.374Z,1019.36
2019-03-26T05:07:47.368Z,1019.35
2019-03-26T05:08:47.361Z,1019.36
2019-03-26T05:09:47.355Z,1019.37
2019-03-26T05:10:49.218Z,1019.35
2019-03-26T05:11:47.341Z,1019.42
2019-03-26T05:12:47.335Z,1019.36
2019-03-26T05:13:47.326Z,1019.40
2019-03-26T05:14:47.322Z,1019.36
2019-03-26T05:15:47.314Z,1019.39
2019-03-26T05:16:47.312Z,1019.43
2019-03-26T05:17:47.300Z,1019.40
2019-03-26T05:18:47.293Z,1019.36
2019-03-26T05:19:47.286Z,1019.40
2019-03-26T05:20:47.280Z,1019.44
2019-03-26T05:21:47.271Z,1019.44
2019-03-26T05:22:47.266Z,1019.41
2019-03-26T05:23:47.261Z,1019.43
2019-03-26T05:24:47.252Z,1019.44
2019-03-26T05:25:47.246Z,1019.44
2019-03-26T05:26:47.238Z,1019.46
2019-03-26T05:27:47.231Z,1019.44
2019-03-26T05:28:47.224Z,1019.46
2019-03-26T05:29:47.217Z,1019.41
2019-03-26T05:30:47.211Z,1019.38
2019-03-26T05:31:47.204Z,1019.37
2019-03-26T05:32:47.198Z,1019.33
2019-03-26T05:33:47.191Z,1019.27
2019-03-26T05:34:47.184Z,1019.27
2019-03-26T05:35:47.176Z,1019.24
2019-03-26T05:36:51.679Z,1019.24
2019-03-26T05:37:47.164Z,1019.26
2019-03-26T05:38:47.157Z,1019.24
2019-03-26T05:39:47.149Z,1019.24
2019-03-26T05:40:47.143Z,1019.25
2019-03-26T05:41:47.141Z,1019.24
2019-03-26T05:42:47.127Z,1019.27
2019-03-26T05:43:47.121Z,1019.24
2019-03-26T05:44:47.113Z,1019.23
2019-03-26T05:45:47.107Z,1019.26
2019-03-26T05:46:47.101Z,1019.22
2019-03-26T05:47:47.094Z,1019.22
2019-03-26T05:48:47.087Z,1019.21
2019-03-26T05:49:47.079Z,1019.21
2019-03-26T05:50:47.074Z,1019.21
2019-03-26T05:51:47.066Z,1019.26
2019-03-26T05:52:47.061Z,1019.24
2019-03-26T05:53:47.052Z,1019.21
2019-03-26T05:54:47.048Z,1019.21
2019-03-26T05:55:47.042Z,1019.22
2019-03-26T05:56:47.059Z,1019.24
2019-03-26T05:57:47.024Z,1019.25
2019-03-26T05:58:47.019Z,1019.23
2019-03-26T05:59:47.013Z,1019.20
2019-03-26T06:00:47.049Z,1019.21
2019-03-26T06:01:46.997Z,1019.21
2019-03-26T06:02:46.991Z,1019.22
2019-03-26T06:03:46.984Z,1019.23
2019-03-26T06:04:46.979Z,1019.22
2019-03-26T06:05:46.973Z,1019.26
2019-03-26T06:06:46.965Z,1019.24
2019-03-26T06:07:46.958Z,1019.25
2019-03-26T06:08:46.954Z,1019.25
2019-03-26T06:09:46.946Z,1019.29
2019-03-26T06:10:46.939Z,1019.29
2019-03-26T06:11:46.934Z,1019.25
2019-03-26T06:12:49.054Z,1019.27
2019-03-26T06:13:46.917Z,1019.29
2019-03-26T06:14:46.913Z,1019.33
2019-03-26T06:15:46.905Z,1019.33
2019-03-26T06:16:46.900Z,1019.32
2019-03-26T06:17:46.892Z,1019.35
2019-03-26T06:18:46.885Z,1019.33
2019-03-26T06:19:46.880Z,1019.35
2019-03-26T06:20:46.872Z,1019.33
2019-03-26T06:21:46.928Z,1019.31
2019-03-26T06:22:46.857Z,1019.33
2019-03-26T06:23:46.853Z,1019.35
2019-03-26T06:24:46.846Z,1019.39
2019-03-26T06:25:46.839Z,1019.36
2019-03-26T06:26:46.830Z,1019.41
2019-03-26T06:27:46.835Z,1019.44
2019-03-26T06:28:46.818Z,1019.49
2019-03-26T06:29:46.813Z,1019.47
2019-03-26T06:30:46.807Z,1019.48
2019-03-26T06:31:46.799Z,1019.52
2019-03-26T06:32:46.795Z,1019.53
2019-03-26T06:33:46.786Z,1019.53
2019-03-26T06:34:46.779Z,1019.58
2019-03-26T06:35:46.773Z,1019.56
2019-03-26T06:36:46.766Z,1019.61
2019-03-26T06:37:46.768Z,1019.61
2019-03-26T06:38:46.754Z,1019.59
2019-03-26T06:39:46.748Z,1019.60
2019-03-26T06:40:46.743Z,1019.56
2019-03-26T06:41:46.734Z,1019.61
2019-03-26T06:42:46.729Z,1019.65
2019-03-26T06:43:46.760Z,1019.69
2019-03-26T06:44:46.715Z,1019.69
2019-03-26T06:45:46.709Z,1019.70
2019-03-26T06:46:46.701Z,1019.70
2019-03-26T06:47:46.696Z,1019.71
2019-03-26T06:48:46.689Z,1019.70
2019-03-26T06:49:46.685Z,1019.72
2019-03-26T06:50:46.677Z,1019.73
2019-03-26T06:51:46.670Z,1019.70
2019-03-26T06:52:46.663Z,1019.68
2019-03-26T06:53:46.655Z,1019.71
2019-03-26T06:54:46.718Z,1019.63
2019-03-26T06:55:46.645Z,1019.68
2019-03-26T06:56:46.643Z,1019.66
2019-03-26T06:57:46.630Z,1019.67
2019-03-26T06:58:46.626Z,1019.69
2019-03-26T06:59:46.619Z,1019.70
2019-03-26T07:00:46.614Z,1019.77
2019-03-26T07:01:46.604Z,1019.84
2019-03-26T07:02:46.599Z,1019.87
2019-03-26T07:03:46.591Z,1019.87
2019-03-26T07:04:46.585Z,1019.90
2019-03-26T07:05:46.579Z,1019.90
2019-03-26T07:06:46.572Z,1019.85
2019-03-26T07:07:46.567Z,1019.86
2019-03-26T07:08:46.560Z,1019.87
2019-03-26T07:09:46.553Z,1019.84
2019-03-26T07:10:46.549Z,1019.84
2019-03-26T07:11:46.541Z,1019.89
2019-03-26T07:12:46.534Z,1019.92
2019-03-26T07:13:46.528Z,1019.87
2019-03-26T07:14:46.522Z,1019.91
2019-03-26T07:15:46.517Z,1019.92
2019-03-26T07:16:46.511Z,1019.93
2019-03-26T07:17:46.505Z,1019.93
2019-03-26T07:18:46.498Z,1019.95
2019-03-26T07:19:46.493Z,1020.02
2019-03-26T07:20:46.485Z,1019.99
2019-03-26T07:21:49.738Z,1020.02
2019-03-26T07:22:46.472Z,1020.07
2019-03-26T07:23:46.466Z,1020.12
2019-03-26T07:24:46.461Z,1020.05
2019-03-26T07:25:46.453Z,1020.06
2019-03-26T07:26:46.447Z,1020.00
2019-03-26T07:27:46.444Z,1020.01
2019-03-26T07:28:46.435Z,1019.95
2019-03-26T07:29:46.429Z,1019.93
2019-03-26T07:30:46.423Z,1019.98
2019-03-26T07:31:46.418Z,1019.97
2019-03-26T07:32:46.412Z,1019.96
2019-03-26T07:33:46.407Z,1019.97
2019-03-26T07:34:46.399Z,1020.00
2019-03-26T07:35:46.398Z,1020.06
2019-03-26T07:36:46.389Z,1020.04
2019-03-26T07:37:46.386Z,1020.08
2019-03-26T07:38:46.379Z,1020.02
2019-03-26T07:39:46.369Z,1020.11
2019-03-26T07:40:46.365Z,1020.13
2019-03-26T07:41:46.357Z,1020.10
2019-03-26T07:42:46.352Z,1020.17
2019-03-26T07:43:46.347Z,1020.11
2019-03-26T07:44:46.342Z,1020.13
2019-03-26T07:45:46.334Z,1020.06
2019-03-26T07:46:46.329Z,1020.15
2019-03-26T07:47:46.322Z,1020.12
2019-03-26T07:48:46.317Z,1020.11
2019-03-26T07:49:46.310Z,1020.09
2019-03-26T07:50:46.303Z,1020.15
2019-03-26T07:51:46.298Z,1020.20
2019-03-26T07:52:46.293Z,1020.15
2019-03-26T07:53:46.286Z,1020.16
2019-03-26T07:54:46.281Z,1020.20
2019-03-26T07:55:46.274Z,1020.23
2019-03-26T07:56:46.270Z,1020.27
2019-03-26T07:57:46.261Z,1020.18
2019-03-26T07:58:46.259Z,1020.21
2019-03-26T07:59:46.251Z,1020.22
2019-03-26T08:00:46.246Z,1020.19
2019-03-26T08:01:46.260Z,1020.24
2019-03-26T08:02:46.233Z,1020.22
2019-03-26T08:03:46.228Z,1020.21
2019-03-26T08:04:46.225Z,1020.16
2019-03-26T08:05:46.220Z,1020.16
2019-03-26T08:06:46.209Z,1020.16
2019-03-26T08:07:57.714Z,1020.13
2019-03-26T08:08:46.198Z,1020.13
2019-03-26T08:09:46.194Z,1020.11
2019-03-26T08:10:46.188Z,1020.13
2019-03-26T08:11:46.181Z,1020.16
2019-03-26T08:12:46.184Z,1020.14
2019-03-26T08:13:46.191Z,1020.18
2019-03-26T08:14:46.200Z,1020.20
2019-03-26T08:15:46.192Z,1020.24
2019-03-26T08:16:46.170Z,1020.21
2019-03-26T08:17:46.147Z,1020.21
2019-03-26T08:18:46.140Z,1020.22
2019-03-26T08:19:46.143Z,1020.25
2019-03-26T08:20:46.129Z,1020.24
2019-03-26T08:21:46.124Z,1020.23
2019-03-26T08:22:46.120Z,1020.22
2019-03-26T08:23:46.112Z,1020.18
2019-03-26T08:24:46.107Z,1020.19
2019-03-26T08:25:46.101Z,1020.18
2019-03-26T08:26:46.097Z,1020.14
2019-03-26T08:27:46.094Z,1020.19
2019-03-26T08:28:46.085Z,1020.25
2019-03-26T08:29:46.080Z,1020.16
2019-03-26T08:30:46.072Z,1020.13
2019-03-26T08:31:46.070Z,1020.11
2019-03-26T08:32:46.063Z,1020.16
2019-03-26T08:33:46.056Z,1020.17
2019-03-26T08:34:46.848Z,1020.15
2019-03-26T08:35:46.047Z,1020.16
2019-03-26T08:36:46.045Z,1020.18
2019-03-26T08:37:46.038Z,1020.18
2019-03-26T08:38:46.034Z,1020.19
2019-03-26T08:39:46.030Z,1020.17
2019-03-26T08:40:46.022Z,1020.19
2019-03-26T08:41:46.014Z,1020.16
2019-03-26T08:42:46.010Z,1020.14
2019-03-26T08:43:46.005Z,1020.19
2019-03-26T08:44:46.000Z,1020.26
2019-03-26T08:45:45.994Z,1020.28
2019-03-26T08:46:46.406Z,1020.32
2019-03-26T08:47:45.985Z,1020.29
2019-03-26T08:48:45.979Z,1020.26
2019-03-26T08:49:45.974Z,1020.24
2019-03-26T08:50:45.970Z,1020.23
2019-03-26T08:51:45.962Z,1020.23
2019-03-26T08:52:45.967Z,1020.24
2019-03-26T08:53:45.954Z,1020.27
2019-03-26T08:54:45.947Z,1020.21
2019-03-26T08:55:45.945Z,1020.21
2019-03-26T08:56:45.939Z,1020.26
2019-03-26T08:57:45.932Z,1020.23
2019-03-26T08:58:45.930Z,1020.25
2019-03-26T08:59:45.923Z,1020.29
2019-03-26T09:00:45.919Z,1020.28
2019-03-26T09:01:45.918Z,1020.29
2019-03-26T09:02:45.909Z,1020.31
2019-03-26T09:03:45.911Z,1020.32
2019-03-26T09:04:45.902Z,1020.35
2019-03-26T09:05:45.894Z,1020.32
2019-03-26T09:06:45.887Z,1020.29
2019-03-26T09:07:45.885Z,1020.28
2019-03-26T09:08:45.880Z,1020.31
2019-03-26T09:09:45.875Z,1020.25
2019-03-26T09:10:51.648Z,1020.27
2019-03-26T09:11:45.863Z,1020.29
2019-03-26T09:12:45.858Z,1020.31
2019-03-26T09:13:45.851Z,1020.30
2019-03-26T09:14:45.845Z,1020.32
2019-03-26T09:15:45.841Z,1020.35
2019-03-26T09:16:45.835Z,1020.35
2019-03-26T09:17:45.832Z,1020.33
2019-03-26T09:18:45.824Z,1020.29
2019-03-26T09:19:45.826Z,1020.29
2019-03-26T09:20:45.816Z,1020.28
2019-03-26T09:21:45.809Z,1020.28
2019-03-26T09:22:45.807Z,1020.27
2019-03-26T09:23:45.799Z,1020.24
2019-03-26T09:24:45.797Z,1020.27
2019-03-26T09:25:45.786Z,1020.27
2019-03-26T09:26:45.780Z,1020.21
2019-03-26T09:27:45.776Z,1020.20
2019-03-26T09:28:47.896Z,1020.20
2019-03-26T09:29:45.765Z,1020.18
2019-03-26T09:30:45.759Z,1020.16
2019-03-26T09:31:45.754Z,1020.17
2019-03-26T09:32:45.750Z,1020.16
2019-03-26T09:33:45.747Z,1020.13
2019-03-26T09:34:45.740Z,1020.18
2019-03-26T09:35:45.735Z,1020.16
2019-03-26T09:36:45.731Z,1020.22
2019-03-26T09:37:45.721Z,1020.18
2019-03-26T09:38:45.718Z,1020.18
2019-03-26T09:39:45.770Z,1020.17
2019-03-26T09:40:45.707Z,1020.24
2019-03-26T09:41:45.701Z,1020.25
2019-03-26T09:42:45.694Z,1020.22
2019-03-26T09:43:45.693Z,1020.24
2019-03-26T09:44:45.684Z,1020.26
2019-03-26T09:45:45.677Z,1020.23
2019-03-26T09:46:45.676Z,1020.28
2019-03-26T09:47:45.669Z,1020.19
2019-03-26T09:48:45.662Z,1020.17
2019-03-26T09:49:45.657Z,1020.18
2019-03-26T09:50:45.650Z,1020.11
2019-03-26T09:51:45.645Z,1020.11
2019-03-26T09:52:45.641Z,1020.10
2019-03-26T09:53:45.634Z,1020.17
2019-03-26T09:54:45.630Z,1020.15
2019-03-26T09:55:45.626Z,1020.14
2019-03-26T09:56:45.620Z,1020.14
2019-03-26T09:57:45.615Z,1020.12
2019-03-26T09:58:45.608Z,1020.12
2019-03-26T09:59:45.604Z,1020.14
2019-03-26T10:00:45.668Z,1020.20
2019-03-26T10:01:45.595Z,1020.16
2019-03-26T10:02:45.587Z,1020.17
2019-03-26T10:03:45.623Z,1020.16
2019-03-26T10:04:45.579Z,1020.11
2019-03-26T10:05:45.571Z,1020.10
2019-03-26T10:06:45.568Z,1020.10
2019-03-26T10:07:45.562Z,1020.13
2019-03-26T10:08:52.438Z,1020.15
2019-03-26T10:09:45.549Z,1020.17
2019-03-26T10:10:45.545Z,1020.16
2019-03-26T10:11:45.540Z,1020.13
2019-03-26T10:12:45.538Z,1020.06
2019-03-26T10:13:45.528Z,1020.14
2019-03-26T10:14:45.524Z,1020.15
2019-03-26T10:15:45.518Z,1020.15
2019-03-26T10:16:45.514Z,1020.22
2019-03-26T10:17:45.510Z,1020.31
2019-03-26T10:18:45.505Z,1020.24
2019-03-26T10:19:45.498Z,1020.23
2019-03-26T10:20:45.498Z,1020.24
2019-03-26T10:21:45.491Z,1020.13
2019-03-26T10:22:45.485Z,1020.16
2019-03-26T10:23:45.480Z,1020.13
2019-03-26T10:24:45.481Z,1020.15
2019-03-26T10:25:45.470Z,1020.10
2019-03-26T10:26:45.466Z,1020.11
2019-03-26T10:27:45.462Z,1020.11
2019-03-26T10:28:45.458Z,1020.16
2019-03-26T10:29:45.453Z,1020.12
2019-03-26T10:30:45.449Z,1020.16
2019-03-26T10:31:45.447Z,1020.16
2019-03-26T10:32:45.442Z,1020.19
2019-03-26T10:33:45.435Z,1020.11
2019-03-26T10:34:45.436Z,1020.13
2019-03-26T10:35:45.428Z,1020.19
2019-03-26T10:36:45.429Z,1020.14
2019-03-26T10:37:45.419Z,1020.13
2019-03-26T10:38:45.415Z,1020.17
2019-03-26T10:39:45.410Z,1020.16
2019-03-26T10:40:45.421Z,1020.17
2019-03-26T10:41:45.402Z,1020.13
2019-03-26T10:42:45.396Z,1020.12
2019-03-26T10:43:45.392Z,1020.10
2019-03-26T10:44:45.390Z,1020.05
2019-03-26T10:45:45.386Z,1020.05
2019-03-26T10:46:45.379Z,1020.01
2019-03-26T10:47:45.375Z,1020.05
2019-03-26T10:48:45.371Z,1020.00
2019-03-26T10:49:45.365Z,1019.91
2019-03-26T10:50:45.363Z,1020.00
2019-03-26T10:51:45.364Z,1019.95
2019-03-26T10:52:45.355Z,1019.97
2019-03-26T10:53:45.350Z,1019.96
2019-03-26T10:54:45.345Z,1019.95
2019-03-26T10:55:45.340Z,1019.85
2019-03-26T10:56:45.335Z,1019.86
2019-03-26T10:57:45.332Z,1019.90
2019-03-26T10:58:45.333Z,1019.86
2019-03-26T10:59:45.322Z,1019.92
2019-03-26T11:00:45.326Z,1019.93
2019-03-26T11:01:45.313Z,1019.90
2019-03-26T11:02:45.311Z,1019.88
2019-03-26T11:03:45.308Z,1019.86
2019-03-26T11:04:45.301Z,1019.90
2019-03-26T11:05:45.300Z,1019.89
2019-03-26T11:06:45.292Z,1019.86
2019-03-26T11:07:45.289Z,1019.87
2019-03-26T11:08:45.377Z,1019.89
2019-03-26T11:09:45.276Z,1019.81
2019-03-26T11:10:45.272Z,1019.85
2019-03-26T11:11:45.268Z,1019.84
2019-03-26T11:12:45.265Z,1019.90
2019-03-26T11:13:45.260Z,1019.89
2019-03-26T11:14:45.255Z,1019.89
2019-03-26T11:15:45.252Z,1019.83
2019-03-26T11:16:45.247Z,1019.87
2019-03-26T11:17:45.245Z,1019.82
2019-03-26T11:18:45.238Z,1019.91
2019-03-26T11:19:46.589Z,1019.82
2019-03-26T11:20:45.230Z,1019.80
2019-03-26T11:21:45.224Z,1019.78
2019-03-26T11:22:45.221Z,1019.83
2019-03-26T11:23:45.222Z,1019.76
2019-03-26T11:24:45.214Z,1019.76
2019-03-26T11:25:45.207Z,1019.73
2019-03-26T11:26:45.206Z,1019.76
2019-03-26T11:27:45.204Z,1019.73
2019-03-26T11:28:45.197Z,1019.87
2019-03-26T11:29:45.192Z,1019.86
2019-03-26T11:30:45.189Z,1019.81
2019-03-26T11:31:45.184Z,1019.84
2019-03-26T11:32:45.180Z,1019.87
2019-03-26T11:33:45.176Z,1019.89
2019-03-26T11:34:45.171Z,1019.88
2019-03-26T11:35:45.168Z,1019.85
2019-03-26T11:36:45.166Z,1019.86
2019-03-26T11:37:45.162Z,1019.87
2019-03-26T11:38:45.154Z,1019.87
2019-03-26T11:39:45.149Z,1019.88
2019-03-26T11:40:45.148Z,1019.89
2019-03-26T11:41:45.140Z,1019.83
2019-03-26T11:42:45.136Z,1019.90
2019-03-26T11:43:45.130Z,1019.77
2019-03-26T11:44:45.127Z,1019.78
2019-03-26T11:45:45.119Z,1019.79
2019-03-26T11:46:45.117Z,1019.85
2019-03-26T11:47:45.110Z,1019.93
2019-03-26T11:48:45.109Z,1019.85
2019-03-26T11:49:45.100Z,1019.85
2019-03-26T11:50:45.096Z,1019.88
2019-03-26T11:51:45.098Z,1019.92
2019-03-26T11:52:45.088Z,1019.92
2019-03-26T11:53:45.082Z,1019.86
2019-03-26T11:54:45.080Z,1019.84
2019-03-26T11:55:45.073Z,1019.86
2019-03-26T11:56:45.066Z,1019.79
2019-03-26T11:57:45.060Z,1019.79
2019-03-26T11:58:45.057Z,1019.82
2019-03-26T11:59:45.051Z,1019.80
2019-03-26T12:00:45.046Z,1019.79
2019-03-26T12:01:45.041Z,1019.81
2019-03-26T12:02:45.035Z,1019.76
2019-03-26T12:03:45.031Z,1019.77
2019-03-26T12:04:45.027Z,1019.81
2019-03-26T12:05:45.023Z,1019.76